Pagrindinis puslapis
METAR-TAF:

METAR-TAF

Oro uostai :

Hahn, Vokietija

platuma: 49-57N, ilguma: 007-16E, Aukštis: 491 m

Dabartinis oras

Ataskaita buvo paskelbta 31 minutes, ne 09:50 UTC
Vėjas 8 kt iš Rytų, svyruoja nuo Šiaurės ir Pietų/Pietryčių
Temperatūra 13°C
Drėgmė 47%
Slėgis 1028 hPa
Matomumas 10 km arba daugiau
nėra debesų žemiau 1500 m ir nėra kamuolinių lietaus debesų

METAR: EDFH 200950Z 09008KT 010V150 CAVOK 13/02 Q1028

Laikas: 12:21 (10:21 UTC)

Prognozė

Ataskaita buvo paskelbta 5 valandos ir 21 minutes, ne 05:00 UTC
Prognozė galioja nuo 20 metu 06 UTC su 21 metu 06 UTC
Vėjas 5 kt iš Rytų
Matomumas 10 km arba daugiau
nėra debesų žemiau 1500 m ir nėra kamuolinių lietaus debesų
Laikinai
nuo 20 metu 09 UTC su 20 metu 18 UTC
Vėjas 10 kt iš Rytų/Pietryčių

TAF: EDFH 200500Z 2006/2106 09005KT CAVOK TEMPO 2009/2018 12010KT

Orai ataskaitas ir orų prognozės (METAR, TAF).

turimą stotys yra geltonos ir raudonos taškus žemėlapyje.

Perkelti pele per norėdami pamatyti stoties vardą.

Tada spustelėkite, norėdami matyti oro stebėjimo ir prognozės.

Norėdami pakeisti žemėlapį: spustelėkite ant žalios mygtukų su juodo kryžiaus žemyn,; žalią mygtuką su brūkšneliu, jei norite nutolinti; arba žalių rodyklių gretimoms žemėlapius.


METAR-TAF: